Flight Track Log - Related Links

Times and Time Zones

All times are in EDT time to prevent confusion due to time zone crossing. See the EJA922 flight status page for this flight to view local times or setup timezone preferences in your user account.

Time Position Orientation Groundspeed Altitude Reporting Facility
EDT Latitude Longitude Course Direction KTS MPH feet Rate Location/Type
Mon 05:01:48 PM 30.3036 -97.5814 90° East 260 299 6,700  Level Houston Center
Mon 05:02:50 PM 30.3206 -97.4931 77° East 279 321 9,400 2,371 Climbing Houston Center
Mon 05:03:52 PM 30.3339 -97.3933 81° East 306 352 11,600 2,081 Climbing Houston Center
Mon 05:04:54 PM 30.3494 -97.2783 81° East 355 409 13,700 1,839 Climbing Houston Center
Mon 05:05:56 PM 30.3567 -97.1558 86° East 379 436 15,400 2,226 Climbing Houston Center
Mon 05:06:00 PM 30.1447 -96.9101 95° East  Level Estimated
Mon 05:06:58 PM 30.3483 -97.0089 94° East 389 448 18,300  Level Houston Center
Mon 05:07:00 PM 30.1360 -96.7835 90° East  Level Estimated
Mon 05:08:00 PM 30.3408 -96.8844 94° East 387 445 20,200  Level Houston Center
Mon 05:09:02 PM 30.3314 -96.7544 95° East 400 460 21,700 1,500 Climbing Houston Center
Mon 05:10:04 PM 30.3244 -96.6181 93° East 416 479 23,300 1,452 Climbing Houston Center
Mon 05:11:06 PM 30.3153 -96.4786 94° East 429 494 24,700 1,200 Climbing Houston Center
Mon 05:12:09 PM 30.3058 -96.3333 94° East 446 513 25,800 1,104 Climbing Houston Center
Mon 05:13:11 PM 30.2939 -96.1564 94° East 465 535 27,000 1,016 Climbing Houston Center
Mon 05:14:13 PM 30.2839 -96.0094 94° East 477 549 27,900 919 Climbing Houston Center
Mon 05:15:15 PM 30.2739 -95.8517 94° East 487 560 28,900 968 Climbing Houston Center
Mon 05:16:17 PM 30.2636 -95.6911 94° East 498 573 29,900 968 Climbing Houston Center
Mon 05:17:19 PM 30.2522 -95.5264 95° East 509 586 30,900 1,065 Climbing Houston Center
Mon 05:18:21 PM 30.2386 -95.3269 94° East 516 594 32,100 1,065 Climbing Houston Center
Mon 05:19:23 PM 30.2281 -95.1586 94° East 521 600 33,100 968 Climbing Houston Center
Mon 05:20:25 PM 30.2153 -94.9892 95° East 523 602 34,100 919 Climbing Houston Center
Mon 05:21:27 PM 30.2025 -94.8192 95° East 528 608 35,000 432 Climbing Houston Center
Mon 05:22:30 PM 30.1911 -94.6472 94° East 532 612 35,000  Level Houston Center
Mon 05:23:32 PM 30.1844 -94.4769 93° East 541 623 35,000  Level Houston Center
Mon 05:24:34 PM 30.1794 -94.2700 92° East 540 621 35,000  Level Houston Center
Mon 05:25:36 PM 30.1744 -94.0983 92° East 537 618 35,000  Level Houston Center
Mon 05:26:38 PM 30.1703 -93.9267 92° East 538 619 35,000  Level Houston Center
Mon 05:27:40 PM 30.1636 -93.7567 93° East 537 618 35,000  Level Houston Center
Mon 05:28:42 PM 30.1567 -93.5853 93° East 542 624 35,000 -97 Level Houston Center
Mon 05:29:44 PM 30.1492 -93.3825 92° East 541 623 34,800 -532 Descending Houston Center
Mon 05:30:46 PM 30.1444 -93.2178 92° East 527 606 33,900 -968 Descending Houston Center
Mon 05:31:48 PM 30.1283 -93.0489 96° East 531 611 32,800 -1,008 Descending Houston Center
Mon 05:32:51 PM 30.0911 -92.8839 105° East 534 615 31,800 -1,048 Descending Houston Center
Mon 05:33:54 PM 30.0453 -92.6833 105° East 539 620 30,600 -1,065 Descending Houston Center
Mon 05:34:55 PM 30.0058 -92.5150 105° East 543 625 29,600 -976 Descending Houston Center
Mon 05:35:57 PM 29.9686 -92.3483 104° East 539 620 28,600 -968 Descending Houston Center
Mon 05:36:59 PM 29.9314 -92.1867 105° East 528 608 27,600 -1,210 Descending Houston Center
Mon 05:38:01 PM 29.8944 -92.0269 105° East 519 597 26,100 -2,177 Descending Houston Center
Mon 05:39:03 PM 29.8594 -91.8750 105° East 496 571 23,100 -3,273 Descending Houston Center
Mon 05:40:02 PM 29.8181 -91.7050 106° East 475 547 19,500 -3,581 Descending Houston Center
Mon 05:40:05 PM 29.8175 -91.6969 95° East 479 551 19,400 -2,400 Descending Houston Center
Mon 05:40:27 PM 29.8042 -91.6453 107° East 474 545 18,500 -2,613 Descending Houston Center
Mon 05:41:07 PM 29.7828 -91.5539 105° East 467 537 16,700 -2,754 Descending Houston Center
Mon 05:41:28 PM 29.7700 -91.5050 107° East 457 526 15,700 -2,903 Descending Houston Center
Mon 05:42:09 PM 29.7508 -91.4186 104° East 444 511 13,700 -2,900 Descending Houston Center
Mon 05:42:28 PM 29.7400 -91.3767 107° East 425 489 12,800 -2,325 Descending Houston Center
Mon 05:43:29 PM 29.7164 -91.2553 103° East 359 413 10,600 -1,486 Descending Houston Center
Mon 05:44:13 PM 29.7033 -91.1889 103° East 358 412 10,200 -787 Descending Houston Center
Mon 05:44:30 PM 29.6933 -91.1556 109° East 309 356 9,800 -1,452 Descending Houston Center
Mon 05:45:15 PM 29.6814 -91.0981 103° East 311 358 8,700 -1,745 Descending Houston Center
Mon 05:45:25 PM 29.6744 -91.0700 106° East 286 329 8,200 -2,032 Descending Houston Center
Mon 05:46:17 PM 29.6556 -90.9928 106° East 296 341 6,600 -1,636 Descending Houston Center
Mon 05:46:31 PM 29.6469 -90.9703 114° Southeast 289 333 6,400 -774 Descending Houston Center
Mon 05:47:19 PM 29.6336 -90.9097 104° East 285 328 5,800 -740 Descending Houston Center
Mon 05:47:44 PM 29.6261 -90.8850 109° East 224 258 5,500 -871 Descending Houston Center
Mon 05:48:21 PM 29.6167 -90.8486 107° East 241 277 4,900 -590 Descending Houston Center
Mon 05:48:45 PM 29.6075 -90.8186 109° East 194 223 4,900 -774 Level Houston Center
Mon 05:49:23 PM 29.6014 -90.7886 103° East 214 246 4,100 -1,475 Descending Houston Center
Mon 05:49:46 PM 29.5789 -90.7647 137° Southeast 211 243 3,400 -1,548 Descending Houston Center
Mon 05:50:25 PM 29.5531 -90.7606 172° South 210 242 2,500 -1,556 Descending Houston Center
Mon 05:50:40 PM 29.5267 -90.7617 182° South 219 252 2,000 -947 Descending Houston Center
Mon 05:51:41 PM 29.4942 -90.7197 132° Southeast 182 209 1,300 -414 Descending Houston Center
Mon 05:52:36 PM 29.4950 -90.6719 89° East 157 181 1,200 -248 Descending Houston Center
Mon 05:53:42 PM 29.5281 -90.6589 19° North 141 162 800 -189 Descending Houston Center
Mon 05:54:43 PM 29.5322 -90.6586 North 141 162 800  Level Houston Center

Login

Don't have an account? Register now (free) for customized features, flight alerts, and more!